Time;durP1;ratioP1;P1;durP2;ratioP2;P2;SDS_P1;SDS_P2;PMS_P1;PMS_P2;Temp;Humidity;BMP_temperature;BMP_pressure;BME280_temperature;BME280_humidity;BME280_pressure;Samples;Min_cycle;Max_cycle;Signal;HPM_P1;HPM_P2
2024/03/03 00:01:26;;;;;;;4.47;3.37;;;9.70;99.90;;;;;;5071442;28;20190;-69
2024/03/03 00:03:52;;;;;;;5.70;3.40;;;9.60;99.90;;;;;;5065291;28;20421;-70
2024/03/03 00:06:17;;;;;;;3.87;3.10;;;9.50;99.90;;;;;;5044028;28;20186;-69
2024/03/03 00:08:43;;;;;;;4.57;3.30;;;9.50;99.90;;;;;;5051145;28;20615;-69
2024/03/03 00:11:08;;;;;;;5.10;3.53;;;9.50;99.90;;;;;;5045673;28;20274;-69
2024/03/03 00:13:34;;;;;;;4.20;3.33;;;9.30;99.90;;;;;;5053222;28;20589;-69
2024/03/03 00:16:01;;;;;;;4.70;3.73;;;9.30;99.90;;;;;;5051085;28;20246;-69
2024/03/03 00:18:27;;;;;;;4.63;3.50;;;9.30;99.90;;;;;;5050566;28;20207;-71
2024/03/03 00:20:52;;;;;;;3.33;2.90;;;9.30;99.90;;;;;;5050624;28;20429;-71
2024/03/03 00:23:18;;;;;;;3.67;3.33;;;9.30;99.90;;;;;;5049765;28;20293;-70
2024/03/03 00:25:43;;;;;;;4.60;3.70;;;9.20;99.90;;;;;;5051274;28;20174;-71
2024/03/03 00:28:09;;;;;;;9.37;4.37;;;9.10;99.90;;;;;;5051133;28;20190;-70
2024/03/03 00:30:34;;;;;;;5.47;4.10;;;9.10;99.90;;;;;;5051173;28;20217;-70
2024/03/03 00:33:00;;;;;;;4.80;3.23;;;9.10;99.90;;;;;;5050733;28;20250;-71
2024/03/03 00:35:25;;;;;;;7.17;3.90;;;9.00;99.90;;;;;;5051179;28;20189;-70
2024/03/03 00:37:51;;;;;;;4.93;3.80;;;9.10;99.90;;;;;;5051319;28;20642;-71
2024/03/03 00:40:16;;;;;;;9.23;5.10;;;9.10;99.90;;;;;;5051309;28;20594;-71
2024/03/03 00:42:42;;;;;;;4.90;4.20;;;9.20;99.90;;;;;;5050946;28;20195;-71
2024/03/03 00:45:08;;;;;;;5.60;3.80;;;9.20;99.90;;;;;;5051232;28;20166;-70
2024/03/03 00:47:34;;;;;;;6.50;4.30;;;9.30;99.90;;;;;;5050990;28;20204;-70
2024/03/03 00:49:59;;;;;;;6.97;4.20;;;9.40;99.90;;;;;;5052149;28;20634;-70
2024/03/03 00:52:25;;;;;;;8.13;5.07;;;9.50;99.90;;;;;;5054280;28;20437;-71
2024/03/03 00:54:50;;;;;;;7.23;4.17;;;9.60;99.90;;;;;;5053416;28;20194;-70
2024/03/03 00:57:16;;;;;;;7.07;5.40;;;9.60;99.90;;;;;;5054541;28;20183;-71
2024/03/03 00:59:41;;;;;;;6.87;4.73;;;9.60;99.90;;;;;;5054537;28;20175;-70
2024/03/03 01:02:07;;;;;;;6.30;4.57;;;9.70;99.90;;;;;;5054074;28;20222;-70
2024/03/03 01:04:32;;;;;;;8.00;5.47;;;9.80;99.90;;;;;;5054511;28;20167;-71
2024/03/03 01:06:58;;;;;;;9.47;5.67;;;9.80;99.90;;;;;;5054409;28;20219;-71
2024/03/03 01:09:23;;;;;;;8.30;5.60;;;9.90;99.90;;;;;;5054140;28;20564;-70
2024/03/03 01:11:53;;;;;;;7.80;4.90;;;9.90;99.90;;;;;;5054457;28;20184;-70
2024/03/03 01:14:19;;;;;;;7.77;4.77;;;10.00;99.90;;;;;;5054052;28;20159;-71
2024/03/03 01:16:45;;;;;;;9.10;4.70;;;10.10;99.90;;;;;;5054177;28;20861;-71
2024/03/03 01:19:10;;;;;;;6.23;4.80;;;10.10;99.90;;;;;;5053057;28;20451;-71
2024/03/03 01:21:39;;;;;;;5.37;4.57;;;10.20;99.90;;;;;;5053822;28;20562;-71
2024/03/03 01:24:05;;;;;;;9.83;4.77;;;10.30;99.90;;;;;;5053753;28;20238;-70
2024/03/03 01:26:31;;;;;;;7.90;5.20;;;10.40;99.90;;;;;;5053971;28;20897;-70
2024/03/03 01:28:56;;;;;;;8.43;5.10;;;10.40;99.90;;;;;;5054126;28;20404;-71
2024/03/03 01:31:22;;;;;;;8.07;5.00;;;10.50;99.90;;;;;;5052791;28;20190;-70
2024/03/03 01:33:47;;;;;;;6.87;4.47;;;10.60;99.90;;;;;;5053759;28;20159;-70
2024/03/03 01:36:13;;;;;;;8.33;5.73;;;10.60;99.90;;;;;;5053909;28;20196;-70
2024/03/03 01:38:39;;;;;;;6.10;4.70;;;10.60;99.90;;;;;;5053758;28;20183;-71
2024/03/03 01:41:04;;;;;;;5.07;4.50;;;10.70;99.90;;;;;;5052449;28;20174;-71
2024/03/03 01:43:30;;;;;;;9.03;4.60;;;10.70;99.90;;;;;;5053283;28;20286;-70
2024/03/03 01:45:55;;;;;;;5.67;4.20;;;10.80;99.90;;;;;;5053720;28;20199;-71
2024/03/03 01:48:21;;;;;;;6.57;4.63;;;10.80;99.90;;;;;;5053606;28;20680;-71
2024/03/03 01:50:49;;;;;;;7.37;4.27;;;10.70;99.90;;;;;;5053656;28;20626;-71
2024/03/03 01:53:15;;;;;;;6.20;4.80;;;10.70;99.90;;;;;;5053189;28;20195;-71
2024/03/03 01:55:41;;;;;;;7.57;4.80;;;10.70;99.90;;;;;;5052196;28;20413;-70
2024/03/03 01:58:09;;;;;;;6.27;4.33;;;10.60;99.90;;;;;;5053344;28;20426;-71
2024/03/03 02:00:34;;;;;;;7.03;4.60;;;10.60;99.90;;;;;;5053333;28;20483;-70
2024/03/03 02:03:08;;;;;;;8.77;5.87;;;10.60;99.90;;;;;;5052169;28;20508;-71
2024/03/03 02:05:38;;;;;;;9.13;4.50;;;10.60;99.90;;;;;;5053327;28;20159;-71
2024/03/03 02:08:04;;;;;;;7.87;4.90;;;10.60;99.90;;;;;;5053077;28;20414;-71
2024/03/03 02:10:34;;;;;;;7.10;4.70;;;10.70;99.90;;;;;;5053103;28;20424;-71
2024/03/03 02:12:59;;;;;;;9.63;5.63;;;10.60;99.90;;;;;;5052841;28;20768;-71
2024/03/03 02:15:25;;;;;;;6.53;5.07;;;10.50;99.90;;;;;;5053088;28;20402;-71
2024/03/03 02:17:54;;;;;;;8.97;3.80;;;10.50;99.90;;;;;;5051665;28;20568;-71
2024/03/03 02:20:20;;;;;;;5.67;4.03;;;10.50;99.90;;;;;;5053007;28;20916;-71
2024/03/03 02:22:45;;;;;;;6.90;4.97;;;10.50;99.90;;;;;;5052579;28;20483;-71
2024/03/03 02:25:11;;;;;;;10.50;6.40;;;10.40;99.90;;;;;;5052967;28;20575;-71
2024/03/03 02:27:37;;;;;;;11.07;4.93;;;10.30;99.90;;;;;;5052697;28;20554;-70
2024/03/03 02:30:03;;;;;;;5.43;3.43;;;10.40;99.90;;;;;;5052843;28;20172;-71
2024/03/03 02:32:29;;;;;;;6.00;3.53;;;10.40;99.90;;;;;;5052613;28;20750;-71
2024/03/03 02:34:55;;;;;;;7.63;4.70;;;10.40;99.90;;;;;;5052462;28;20508;-71
2024/03/03 02:37:21;;;;;;;7.20;5.17;;;10.40;99.90;;;;;;5052485;28;20441;-71
2024/03/03 02:39:46;;;;;;;3.90;3.60;;;10.50;99.90;;;;;;5052697;28;20393;-71
2024/03/03 02:42:12;;;;;;;7.50;4.67;;;10.40;99.90;;;;;;5052119;28;20199;-71
2024/03/03 02:44:37;;;;;;;5.73;4.60;;;10.50;99.90;;;;;;5052511;28;20162;-71
2024/03/03 02:47:03;;;;;;;7.17;3.73;;;10.40;99.90;;;;;;5052465;28;20197;-70
2024/03/03 02:49:29;;;;;;;5.80;4.33;;;10.40;99.90;;;;;;5052511;28;20170;-71
2024/03/03 02:51:55;;;;;;;7.00;4.73;;;10.40;99.90;;;;;;5052007;28;20194;-71
2024/03/03 02:54:22;;;;;;;4.90;3.50;;;10.40;99.90;;;;;;5052069;28;20190;-71
2024/03/03 02:56:47;;;;;;;5.00;4.00;;;10.30;99.90;;;;;;5052155;28;20401;-71
2024/03/03 02:59:13;;;;;;;5.30;4.23;;;10.30;99.90;;;;;;5051052;28;20443;-71
2024/03/03 03:01:38;;;;;;;6.60;5.03;;;10.20;99.90;;;;;;5052437;28;20190;-71
2024/03/03 03:04:04;;;;;;;6.60;5.17;;;10.20;99.90;;;;;;5051972;28;20159;-71
2024/03/03 03:06:29;;;;;;;5.70;4.27;;;10.20;99.90;;;;;;5051966;28;20186;-71
2024/03/03 03:08:55;;;;;;;5.63;4.47;;;10.10;99.90;;;;;;5052202;28;20163;-71
2024/03/03 03:11:20;;;;;;;6.67;4.73;;;10.10;99.90;;;;;;5052018;28;20190;-71
2024/03/03 03:13:46;;;;;;;8.80;5.20;;;10.00;99.90;;;;;;5051642;28;20221;-71
2024/03/03 03:16:12;;;;;;;5.43;4.10;;;9.90;99.90;;;;;;5050709;28;20178;-71
2024/03/03 03:18:37;;;;;;;7.53;4.97;;;9.90;99.90;;;;;;5051987;28;20429;-71
2024/03/03 03:21:06;;;;;;;7.93;5.67;;;9.80;99.90;;;;;;5051958;28;20583;-71
2024/03/03 03:23:32;;;;;;;5.33;4.40;;;9.70;99.90;;;;;;5052113;28;20285;-71
2024/03/03 03:25:57;;;;;;;9.00;5.10;;;9.60;99.90;;;;;;5051944;28;20425;-71
2024/03/03 03:28:23;;;;;;;8.37;4.40;;;9.60;99.90;;;;;;5051765;28;20186;-71
2024/03/03 03:30:48;;;;;;;5.50;4.27;;;9.50;99.90;;;;;;5051761;28;20630;-71
2024/03/03 03:33:15;;;;;;;12.53;4.00;;;9.50;99.90;;;;;;5051160;28;20188;-71
2024/03/03 03:35:41;;;;;;;6.70;3.63;;;9.50;99.90;;;;;;5050660;28;20197;-70
2024/03/03 03:38:07;;;;;;;3.97;3.57;;;9.50;99.90;;;;;;5051565;28;20862;-71
2024/03/03 03:40:32;;;;;;;5.40;4.87;;;9.40;99.90;;;;;;5051626;28;20405;-71
2024/03/03 03:42:58;;;;;;;6.87;4.50;;;9.40;99.90;;;;;;5051336;28;20276;-70
2024/03/03 03:45:24;;;;;;;6.73;4.37;;;9.40;99.90;;;;;;5051687;28;20217;-71
2024/03/03 03:47:49;;;;;;;6.67;4.23;;;9.40;99.90;;;;;;5051646;28;20190;-71
2024/03/03 03:50:15;;;;;;;6.03;4.27;;;9.50;99.90;;;;;;5051700;28;20638;-71
2024/03/03 03:52:41;;;;;;;9.17;4.20;;;9.40;99.90;;;;;;5051282;28;20186;-71
2024/03/03 03:55:07;;;;;;;8.47;3.80;;;9.50;99.90;;;;;;5051489;28;20167;-71
2024/03/03 03:57:32;;;;;;;6.77;4.53;;;9.50;99.90;;;;;;5051537;28;20550;-71
2024/03/03 03:59:59;;;;;;;8.30;4.00;;;9.50;99.90;;;;;;5051608;28;20409;-70
2024/03/03 04:02:25;;;;;;;6.63;4.43;;;9.50;99.90;;;;;;5051187;28;20214;-70
2024/03/03 04:04:51;;;;;;;8.20;3.90;;;9.40;99.90;;;;;;5051423;28;20484;-71
2024/03/03 04:07:16;;;;;;;5.93;3.80;;;9.40;99.90;;;;;;5051525;28;20464;-70
2024/03/03 04:09:42;;;;;;;8.30;4.43;;;9.40;99.90;;;;;;5051450;28;20171;-70
2024/03/03 04:12:08;;;;;;;10.57;5.87;;;9.50;99.90;;;;;;5051208;28;20588;-70
2024/03/03 04:14:33;;;;;;;11.27;4.40;;;9.50;99.90;;;;;;5051657;28;20225;-70
2024/03/03 04:16:59;;;;;;;12.13;5.23;;;9.50;99.90;;;;;;5051428;28;20262;-71
2024/03/03 04:19:24;;;;;;;10.77;5.07;;;9.60;99.90;;;;;;5051360;28;20171;-71
2024/03/03 04:21:50;;;;;;;9.47;6.43;;;9.60;99.90;;;;;;5051308;28;20186;-71
2024/03/03 04:24:15;;;;;;;8.23;5.07;;;9.60;99.90;;;;;;5050836;28;20174;-70
2024/03/03 04:26:42;;;;;;;11.60;6.33;;;9.70;99.90;;;;;;5055075;28;20163;-71
2024/03/03 04:29:07;;;;;;;8.10;5.23;;;9.70;99.90;;;;;;5055119;28;20189;-71
2024/03/03 04:31:33;;;;;;;9.90;6.57;;;9.70;99.90;;;;;;5055055;28;20401;-71
2024/03/03 04:33:58;;;;;;;10.57;5.70;;;9.70;99.90;;;;;;5054799;28;20235;-70
2024/03/03 04:36:24;;;;;;;10.93;6.43;;;9.80;99.90;;;;;;5055033;28;20281;-71
2024/03/03 04:38:49;;;;;;;11.57;5.23;;;9.70;99.90;;;;;;5052932;28;20230;-71
2024/03/03 04:41:17;;;;;;;10.63;5.30;;;9.60;99.90;;;;;;5054850;28;20652;-71
2024/03/03 04:43:42;;;;;;;11.77;6.80;;;9.70;99.90;;;;;;5053208;28;20258;-71
2024/03/03 04:46:08;;;;;;;12.70;6.80;;;9.60;99.90;;;;;;5054867;28;20448;-71
2024/03/03 04:48:35;;;;;;;12.93;6.27;;;9.60;99.90;;;;;;5053488;28;20286;-71
2024/03/03 04:51:01;;;;;;;9.40;6.30;;;9.60;99.90;;;;;;5054750;28;20754;-70
2024/03/03 04:53:26;;;;;;;11.53;5.97;;;9.60;99.90;;;;;;5054308;28;20474;-71
2024/03/03 04:55:52;;;;;;;11.37;6.97;;;9.50;99.90;;;;;;5054697;28;20163;-71
2024/03/03 04:58:18;;;;;;;9.43;5.93;;;9.50;99.90;;;;;;5054592;28;20179;-71
2024/03/03 05:00:43;;;;;;;7.53;6.00;;;9.50;99.90;;;;;;5053195;28;20170;-70
2024/03/03 05:03:09;;;;;;;9.47;5.80;;;9.50;99.90;;;;;;5054198;28;20194;-70
2024/03/03 05:05:35;;;;;;;8.70;5.97;;;9.50;99.90;;;;;;5054364;28;20167;-71
2024/03/03 05:08:01;;;;;;;7.20;5.50;;;9.50;99.90;;;;;;5054279;28;20265;-71
2024/03/03 05:10:26;;;;;;;12.17;7.00;;;9.60;99.90;;;;;;5053034;28;20173;-71
2024/03/03 05:12:52;;;;;;;11.00;6.07;;;9.60;99.90;;;;;;5052805;28;20463;-71
2024/03/03 05:15:18;;;;;;;12.40;5.40;;;9.50;99.90;;;;;;5054216;28;20190;-70
2024/03/03 05:17:43;;;;;;;11.03;7.20;;;9.60;99.90;;;;;;5054239;28;20187;-71
2024/03/03 05:20:09;;;;;;;13.53;7.17;;;9.60;99.90;;;;;;5054083;28;20167;-71
2024/03/03 05:22:36;;;;;;;11.27;5.67;;;9.70;99.90;;;;;;5053731;28;20190;-70
2024/03/03 05:25:04;;;;;;;11.87;6.13;;;9.70;99.90;;;;;;5054249;28;20412;-71
2024/03/03 05:27:33;;;;;;;9.83;6.57;;;9.60;99.90;;;;;;5054003;28;20950;-71
2024/03/03 05:29:59;;;;;;;10.33;7.30;;;9.60;99.90;;;;;;5054111;28;20433;-71
2024/03/03 05:32:24;;;;;;;11.17;6.70;;;9.60;99.90;;;;;;5053666;28;20488;-71
2024/03/03 05:34:50;;;;;;;13.60;6.07;;;9.60;99.90;;;;;;5053961;28;20492;-71
2024/03/03 05:37:16;;;;;;;12.83;7.03;;;9.60;99.90;;;;;;5053602;28;20191;-71
2024/03/03 05:39:41;;;;;;;17.23;7.10;;;9.70;99.90;;;;;;5053924;28;20394;-71
2024/03/03 05:42:08;;;;;;;13.57;6.80;;;9.70;99.90;;;;;;5053553;28;20195;-70
2024/03/03 05:44:34;;;;;;;8.83;7.13;;;9.60;99.90;;;;;;5053869;28;20174;-72
2024/03/03 05:47:00;;;;;;;11.27;6.53;;;9.60;99.90;;;;;;5053623;28;20425;-72
2024/03/03 05:49:25;;;;;;;15.70;8.27;;;9.60;99.90;;;;;;5054052;28;20526;-71
2024/03/03 05:51:51;;;;;;;15.23;6.37;;;9.60;99.90;;;;;;5053528;28;20413;-72
2024/03/03 05:54:16;;;;;;;10.67;7.40;;;9.50;99.90;;;;;;5053698;28;20582;-72
2024/03/03 05:56:42;;;;;;;8.70;7.40;;;9.50;99.90;;;;;;5053885;28;20174;-72
2024/03/03 05:59:07;;;;;;;11.57;5.77;;;9.50;99.90;;;;;;5053915;28;20545;-72
2024/03/03 06:01:33;;;;;;;10.90;6.03;;;9.50;99.90;;;;;;5053741;28;20217;-71
2024/03/03 06:03:58;;;;;;;11.10;6.27;;;9.50;99.90;;;;;;5053448;28;20214;-72
2024/03/03 06:06:24;;;;;;;12.40;6.63;;;9.40;99.90;;;;;;5053578;28;20538;-72
2024/03/03 06:08:52;;;;;;;9.37;6.67;;;9.50;99.90;;;;;;5053576;28;20183;-71
2024/03/03 06:11:18;;;;;;;12.30;6.37;;;9.50;99.90;;;;;;5052586;28;20162;-72
2024/03/03 06:13:44;;;;;;;8.50;5.80;;;9.50;99.90;;;;;;5053644;28;20405;-71
2024/03/03 06:16:09;;;;;;;9.43;6.80;;;9.50;99.90;;;;;;5053730;28;20159;-72
2024/03/03 06:18:35;;;;;;;9.20;6.60;;;9.50;99.90;;;;;;5053403;28;20421;-72
2024/03/03 06:21:00;;;;;;;10.87;6.63;;;9.50;99.90;;;;;;5053249;28;20533;-71
2024/03/03 06:23:26;;;;;;;8.80;6.47;;;9.60;99.90;;;;;;5051167;28;20198;-71
2024/03/03 06:25:52;;;;;;;11.57;6.97;;;9.60;99.90;;;;;;5053003;28;20166;-71
2024/03/03 06:28:17;;;;;;;10.87;6.67;;;9.70;99.90;;;;;;5052644;28;20252;-71
2024/03/03 06:30:43;;;;;;;11.13;6.70;;;9.70;99.90;;;;;;5052663;28;20240;-71
2024/03/03 06:33:12;;;;;;;46.83;23.67;;;9.70;99.90;;;;;;5052561;28;20285;-71
2024/03/03 06:35:38;;;;;;;26.73;14.20;;;9.80;99.90;;;;;;5052843;28;20256;-72
2024/03/03 06:38:04;;;;;;;11.80;6.37;;;9.80;99.90;;;;;;5052068;28;20980;-71
2024/03/03 06:40:29;;;;;;;14.20;8.33;;;9.90;99.90;;;;;;5052713;28;20254;-71
2024/03/03 06:42:55;;;;;;;13.03;7.03;;;9.90;99.90;;;;;;5052430;28;20281;-70
2024/03/03 06:45:20;;;;;;;10.10;5.83;;;9.90;99.90;;;;;;5051501;28;20648;-71
2024/03/03 06:47:46;;;;;;;11.13;7.20;;;10.00;99.90;;;;;;5052160;28;20635;-71
2024/03/03 06:50:11;;;;;;;11.43;7.63;;;10.00;99.90;;;;;;5052526;28;20162;-71
2024/03/03 06:52:37;;;;;;;11.33;7.13;;;10.10;99.90;;;;;;5052073;28;20198;-71
2024/03/03 06:55:03;;;;;;;9.57;5.83;;;10.10;99.90;;;;;;5052395;28;20258;-71
2024/03/03 06:57:28;;;;;;;13.63;8.30;;;10.20;99.90;;;;;;5052339;28;20618;-71
2024/03/03 06:59:55;;;;;;;8.80;6.37;;;10.20;99.90;;;;;;5052091;28;20664;-71
2024/03/03 07:02:20;;;;;;;11.43;7.17;;;10.30;99.90;;;;;;5051825;28;20199;-71
2024/03/03 07:04:46;;;;;;;10.70;6.17;;;10.30;99.90;;;;;;5052079;28;20408;-71
2024/03/03 07:07:12;;;;;;;15.77;9.30;;;10.20;99.90;;;;;;5052128;28;20592;-71
2024/03/03 07:09:38;;;;;;;11.00;7.47;;;10.30;99.90;;;;;;5052223;28;20545;-71
2024/03/03 07:12:04;;;;;;;12.40;8.87;;;10.40;99.90;;;;;;5052878;28;20410;-70
2024/03/03 07:14:31;;;;;;;16.07;9.00;;;10.50;99.90;;;;;;5052195;28;20405;-70
2024/03/03 07:16:56;;;;;;;12.43;8.13;;;10.60;99.90;;;;;;5051913;28;20433;-71
2024/03/03 07:19:22;;;;;;;14.30;7.47;;;10.70;99.90;;;;;;5050603;28;20424;-71
2024/03/03 07:21:48;;;;;;;11.97;7.40;;;10.60;99.90;;;;;;5051940;28;20230;-71
2024/03/03 07:24:14;;;;;;;10.87;6.80;;;10.60;99.90;;;;;;5051676;28;20912;-71
2024/03/03 07:26:40;;;;;;;13.13;8.23;;;10.80;99.90;;;;;;5051956;28;20163;-71
2024/03/03 07:29:07;;;;;;;14.67;6.87;;;10.80;99.90;;;;;;5051991;28;20493;-71
2024/03/03 07:31:34;;;;;;;9.97;6.93;;;11.00;99.90;;;;;;5051857;28;20740;-71
2024/03/03 07:33:59;;;;;;;9.50;6.33;;;11.00;99.90;;;;;;5051565;28;20886;-71
2024/03/03 07:36:25;;;;;;;11.43;5.80;;;11.10;99.90;;;;;;5051727;28;20406;-71
2024/03/03 07:38:50;;;;;;;9.90;6.33;;;11.20;99.90;;;;;;5051685;28;20187;-71
2024/03/03 07:41:16;;;;;;;8.93;6.10;;;11.40;99.90;;;;;;5051791;28;20171;-71
2024/03/03 07:43:42;;;;;;;13.40;7.47;;;11.40;99.90;;;;;;5051079;28;20225;-71
2024/03/03 07:46:08;;;;;;;9.20;6.37;;;11.50;99.90;;;;;;5052021;28;20163;-71
2024/03/03 07:48:33;;;;;;;12.87;6.37;;;11.50;99.90;;;;;;5051474;28;20417;-71
2024/03/03 07:51:02;;;;;;;13.03;7.10;;;11.50;99.90;;;;;;5051834;28;20220;-71
2024/03/03 07:53:27;;;;;;;10.87;6.23;;;11.50;99.90;;;;;;5051315;28;20665;-71
2024/03/03 07:55:53;;;;;;;9.60;6.37;;;11.60;99.90;;;;;;5051682;28;20412;-70
2024/03/03 07:58:19;;;;;;;8.37;6.67;;;11.70;99.90;;;;;;5051560;28;20678;-71
2024/03/03 08:00:44;;;;;;;12.63;6.10;;;11.70;99.90;;;;;;5054020;28;20178;-71
2024/03/03 08:03:10;;;;;;;10.23;6.30;;;11.80;99.90;;;;;;5057575;28;20561;-72
2024/03/03 08:05:36;;;;;;;8.47;6.53;;;11.80;99.90;;;;;;5058288;28;20167;-71
2024/03/03 08:08:02;;;;;;;8.10;6.27;;;11.90;99.90;;;;;;5058234;28;20182;-72
2024/03/03 08:10:27;;;;;;;11.60;6.17;;;12.00;99.90;;;;;;5058263;28;20217;-72
2024/03/03 08:12:54;;;;;;;9.63;6.87;;;12.00;99.90;;;;;;5058985;28;20409;-70
2024/03/03 08:15:20;;;;;;;9.07;6.30;;;12.00;99.90;;;;;;5056646;28;20198;-69
2024/03/03 08:17:45;;;;;;;11.00;6.87;;;12.00;99.90;;;;;;5054878;28;20425;-69
2024/03/03 08:20:11;;;;;;;12.17;7.07;;;12.20;99.90;;;;;;5054921;28;20415;-69
2024/03/03 08:22:41;;;;;;;10.87;7.30;;;12.30;99.90;;;;;;5055136;28;20206;-69
2024/03/03 08:25:12;;;;;;;9.40;6.50;;;12.50;99.90;;;;;;5055262;28;20216;-68
2024/03/03 08:27:39;;;;;;;7.90;6.13;;;12.50;99.90;;;;;;5055088;28;20503;-68
2024/03/03 08:30:06;;;;;;;8.33;5.93;;;12.60;99.90;;;;;;5054784;28;20405;-69
2024/03/03 08:32:32;;;;;;;11.50;6.70;;;12.90;99.90;;;;;;5054711;28;20435;-69
2024/03/03 08:34:59;;;;;;;11.53;6.43;;;13.00;99.90;;;;;;5054364;28;20397;-69
2024/03/03 08:37:24;;;;;;;9.63;6.90;;;13.20;99.90;;;;;;5055067;28;20428;-69
2024/03/03 08:39:50;;;;;;;12.77;6.90;;;13.50;99.90;;;;;;5055009;28;20405;-69
2024/03/03 08:42:15;;;;;;;12.17;8.00;;;13.60;99.90;;;;;;5054728;28;20217;-69
2024/03/03 08:44:41;;;;;;;9.13;6.03;;;13.60;99.90;;;;;;5055134;28;20167;-69
2024/03/03 08:47:06;;;;;;;9.77;6.13;;;13.60;99.90;;;;;;5054706;28;20190;-68
2024/03/03 08:49:33;;;;;;;9.37;6.23;;;13.70;99.90;;;;;;5054692;28;20242;-69
2024/03/03 08:52:01;;;;;;;8.83;6.33;;;13.90;99.90;;;;;;5054604;28;20183;-69
2024/03/03 08:54:26;;;;;;;11.80;7.20;;;14.00;99.90;;;;;;5053277;28;20433;-68
2024/03/03 08:56:52;;;;;;;9.20;6.40;;;14.10;99.90;;;;;;5053579;28;20464;-69
2024/03/03 08:59:17;;;;;;;9.97;7.10;;;14.10;99.90;;;;;;5053367;28;20175;-69
2024/03/03 09:01:43;;;;;;;10.90;7.37;;;14.10;99.90;;;;;;5053265;28;20178;-69
2024/03/03 09:04:08;;;;;;;10.70;6.37;;;14.20;99.90;;;;;;5053093;28;20164;-69
2024/03/03 09:06:34;;;;;;;10.50;6.43;;;14.20;99.90;;;;;;5053274;28;20572;-68
2024/03/03 09:08:59;;;;;;;9.73;6.63;;;14.30;99.90;;;;;;5053292;28;20703;-68
2024/03/03 09:11:25;;;;;;;8.87;6.40;;;14.40;99.90;;;;;;5052891;28;20697;-68
2024/03/03 09:13:52;;;;;;;9.43;7.47;;;14.70;99.90;;;;;;5052985;28;20246;-68
2024/03/03 09:16:17;;;;;;;10.43;6.47;;;15.00;99.90;;;;;;5053393;28;20413;-69
2024/03/03 09:18:44;;;;;;;9.60;6.57;;;15.20;99.90;;;;;;5053033;28;20413;-69
2024/03/03 09:21:10;;;;;;;11.83;7.17;;;15.50;99.90;;;;;;5053192;28;20620;-69
2024/03/03 09:23:36;;;;;;;9.57;6.50;;;15.90;99.90;;;;;;5052923;28;20445;-68
2024/03/03 09:26:01;;;;;;;9.63;7.33;;;16.70;99.90;;;;;;5053139;28;20167;-69
2024/03/03 09:28:28;;;;;;;15.30;6.30;;;17.00;99.90;;;;;;5052909;28;20240;-69
2024/03/03 09:30:54;;;;;;;11.90;6.43;;;17.50;99.90;;;;;;5053026;28;20507;-68
2024/03/03 09:33:19;;;;;;;9.17;7.43;;;17.60;99.90;;;;;;5052379;28;20409;-69
2024/03/03 09:35:45;;;;;;;9.83;5.83;;;17.70;99.50;;;;;;5052734;28;20772;-69
2024/03/03 09:38:10;;;;;;;10.00;6.80;;;17.80;99.10;;;;;;5052806;28;20228;-69
2024/03/03 09:40:37;;;;;;;10.47;7.10;;;17.70;97.90;;;;;;5052782;28;20175;-68
2024/03/03 09:43:03;;;;;;;8.63;6.63;;;17.50;97.00;;;;;;5052313;28;20595;-68
2024/03/03 09:45:30;;;;;;;7.53;6.57;;;17.50;97.60;;;;;;5052753;28;20396;-68
2024/03/03 09:47:59;;;;;;;9.30;7.10;;;17.80;97.90;;;;;;5052932;28;20430;-68
2024/03/03 09:50:26;;;;;;;10.13;7.10;;;18.20;96.70;;;;;;5052804;28;20467;-69
2024/03/03 09:52:53;;;;;;;8.33;6.13;;;18.50;94.20;;;;;;4992069;28;1744820;-69
2024/03/03 09:55:19;;;;;;;10.77;6.27;;;19.20;95.00;;;;;;5053608;28;20202;-69
2024/03/03 09:57:45;;;;;;;8.53;6.00;;;20.80;93.20;;;;;;5053394;28;20899;-70
2024/03/03 10:00:11;;;;;;;12.07;7.30;;;22.40;81.70;;;;;;5053523;28;20492;-66
2024/03/03 10:02:37;;;;;;;25.80;8.10;;;23.30;70.30;;;;;;5053110;28;20199;-74
2024/03/03 10:05:05;;;;;;;7.17;4.80;;;23.40;59.50;;;;;;5054033;28;20744;-71
2024/03/03 10:07:38;;;;;;;8.50;5.47;;;23.50;59.00;;;;;;5052385;28;20433;-70
2024/03/03 10:10:05;;;;;;;6.67;4.67;;;23.60;57.70;;;;;;5053246;28;20889;-69
2024/03/03 10:12:32;;;;;;;6.10;4.60;;;23.60;55.20;;;;;;5051859;28;20916;-69
2024/03/03 10:14:59;;;;;;;9.43;5.40;;;23.70;54.30;;;;;;5053160;28;20814;-69
2024/03/03 10:17:25;;;;;;;8.37;6.73;;;23.40;53.60;;;;;;5051614;28;20436;-70
2024/03/03 10:19:50;;;;;;;10.13;6.17;;;23.20;52.70;;;;;;5051900;28;20421;-70
2024/03/03 10:22:20;;;;;;;8.57;6.07;;;23.20;53.00;;;;;;5052498;28;20452;-70
2024/03/03 10:24:46;;;;;;;7.53;6.30;;;23.90;53.30;;;;;;5053448;28;20400;-71
2024/03/03 10:27:16;;;;;;;8.27;6.07;;;24.90;53.10;;;;;;5053324;28;20512;-70
2024/03/03 10:29:43;;;;;;;9.33;5.40;;;25.80;51.40;;;;;;5053433;28;20405;-70
2024/03/03 10:32:10;;;;;;;6.70;5.40;;;26.10;49.20;;;;;;5051995;28;20413;-70
2024/03/03 10:34:36;;;;;;;5.77;5.20;;;26.30;47.90;;;;;;5051552;28;20749;-70
2024/03/03 10:37:03;;;;;;;8.37;5.83;;;26.50;45.90;;;;;;5051376;28;20433;-70
2024/03/03 10:39:35;;;;;;;7.13;5.47;;;26.30;45.40;;;;;;5051555;28;20418;-70
2024/03/03 10:42:06;;;;;;;7.07;6.10;;;26.10;45.60;;;;;;5052910;28;20881;-70
2024/03/03 10:44:31;;;;;;;9.67;8.47;;;25.70;45.00;;;;;;5052736;28;20484;-70
2024/03/03 10:46:57;;;;;;;9.10;6.57;;;24.80;44.50;;;;;;5052520;28;20532;-70
2024/03/03 10:49:25;;;;;;;7.87;6.60;;;24.10;45.00;;;;;;5051345;28;20167;-70
2024/03/03 10:51:51;;;;;;;10.00;7.33;;;23.60;46.70;;;;;;5052420;28;20189;-70
2024/03/03 10:54:18;;;;;;;7.40;5.73;;;23.70;48.00;;;;;;5052546;28;20413;-71
2024/03/03 10:56:44;;;;;;;7.50;5.63;;;25.10;49.10;;;;;;5051759;28;20179;-71
2024/03/03 10:59:11;;;;;;;13.27;7.63;;;28.50;50.00;;;;;;5052594;28;20432;-70
2024/03/03 11:01:36;;;;;;;5.77;5.10;;;31.70;41.90;;;;;;5052249;28;20416;-70
2024/03/03 11:04:05;;;;;;;5.80;5.30;;;34.50;40.20;;;;;;5052122;28;20405;-68
2024/03/03 11:06:32;;;;;;;7.40;6.63;;;36.10;34.80;;;;;;5052217;28;20308;-68
2024/03/03 11:08:58;;;;;;;7.73;7.00;;;35.40;31.40;;;;;;5052195;28;20433;-68
2024/03/03 11:11:25;;;;;;;7.60;6.20;;;34.20;30.40;;;;;;5052599;28;20405;-68
2024/03/03 11:13:59;;;;;;;7.83;6.73;;;33.20;30.30;;;;;;5052276;28;20413;-69
2024/03/03 11:16:28;;;;;;;7.77;6.50;;;32.80;30.70;;;;;;5052029;28;20401;-68
2024/03/03 11:19:00;;;;;;;5.70;5.20;;;33.40;31.50;;;;;;5051964;28;20466;-68
2024/03/03 11:21:31;;;;;;;5.03;4.63;;;34.70;32.20;;;;;;5052159;28;20413;-68
2024/03/03 11:24:05;;;;;;;5.57;4.70;;;36.80;31.60;;;;;;5052125;28;20417;-68
2024/03/03 11:26:39;;;;;;;6.07;5.50;;;39.10;30.90;;;;;;5052059;28;20425;-68
2024/03/03 11:29:07;;;;;;;6.13;5.60;;;39.80;28.20;;;;;;5051947;28;20451;-69
2024/03/03 11:31:34;;;;;;;6.07;5.50;;;39.70;26.90;;;;;;5051869;28;20432;-69
2024/03/03 11:34:01;;;;;;;6.60;5.03;;;39.10;26.60;;;;;;5051485;28;20746;-69
2024/03/03 11:36:27;;;;;;;6.20;5.60;;;39.10;27.00;;;;;;5051836;28;20789;-69
2024/03/03 11:38:57;;;;;;;5.90;5.30;;;38.90;27.00;;;;;;5051724;28;20413;-69
2024/03/03 11:41:23;;;;;;;7.83;6.20;;;38.90;26.60;;;;;;5051859;28;20398;-70
2024/03/03 11:43:51;;;;;;;5.17;4.60;;;38.50;26.00;;;;;;5051384;28;20530;-69
2024/03/03 11:46:49;;;;;;;5.93;5.37;;;38.80;26.90;;;;;;5051795;28;20194;-69
2024/03/03 11:49:22;;;;;;;6.00;5.40;;;39.60;26.50;;;;;;5051795;28;20895;-69
2024/03/03 11:51:48;;;;;;;6.10;5.50;;;40.60;26.10;;;;;;5051618;28;20431;-69
2024/03/03 11:54:28;;;;;;;6.33;5.10;;;41.00;25.60;;;;;;5051338;28;20393;-69
2024/03/03 11:56:58;;;;;;;6.30;5.70;;;40.80;25.50;;;;;;5051654;28;20437;-69
2024/03/03 11:59:37;;;;;;;5.53;5.03;;;40.40;24.80;;;;;;5051625;28;20747;-69
2024/03/03 12:02:03;;;;;;;5.97;5.47;;;39.80;24.70;;;;;;5051483;28;20445;-69
2024/03/03 12:04:29;;;;;;;6.63;5.67;;;40.00;25.40;;;;;;5051250;28;20402;-69
2024/03/03 12:06:54;;;;;;;5.80;5.17;;;41.30;24.80;;;;;;5051469;28;20450;-69
2024/03/03 12:09:22;;;;;;;5.07;4.57;;;43.00;24.70;;;;;;5051573;28;20654;-69
2024/03/03 12:11:50;;;;;;;7.10;6.50;;;44.80;24.00;;;;;;5051492;28;20167;-70
2024/03/03 12:14:16;;;;;;;7.90;7.20;;;46.30;23.40;;;;;;5051151;28;20493;-70
2024/03/03 12:16:42;;;;;;;5.53;5.13;;;47.60;22.80;;;;;;5051349;28;20940;-69
2024/03/03 12:19:10;;;;;;;5.40;4.77;;;48.60;22.50;;;;;;5051355;28;20202;-70
2024/03/03 12:21:36;;;;;;;5.70;5.30;;;49.60;22.00;;;;;;5051439;28;20591;-70
2024/03/03 12:24:05;;;;;;;5.97;5.57;;;50.10;21.30;;;;;;5050855;28;20387;-71
2024/03/03 12:26:30;;;;;;;5.60;5.10;;;50.50;20.40;;;;;;5051336;28;20740;-70
2024/03/03 12:28:56;;;;;;;7.40;6.70;;;50.90;20.00;;;;;;5051333;28;20399;-70
2024/03/03 12:31:22;;;;;;;5.90;5.30;;;51.10;19.00;;;;;;5051401;28;20171;-70
2024/03/03 12:33:47;;;;;;;6.07;5.57;;;51.10;19.30;;;;;;5050952;28;20171;-70
2024/03/03 12:36:13;;;;;;;6.40;5.90;;;51.00;18.80;;;;;;5051311;28;20182;-70
2024/03/03 12:38:39;;;;;;;5.27;4.87;;;51.00;18.50;;;;;;5051204;28;20706;-70
2024/03/03 12:41:05;;;;;;;5.20;4.80;;;51.00;18.80;;;;;;5051159;28;20175;-70
2024/03/03 12:43:32;;;;;;;6.20;5.70;;;51.10;18.50;;;;;;5050847;28;20222;-70